Time;durP1;ratioP1;P1;durP2;ratioP2;P2;SDS_P1;SDS_P2;PMS_P1;PMS_P2;Temp;Humidity;BMP_temperature;BMP_pressure;BME280_temperature;BME280_humidity;BME280_pressure;Samples;Min_cycle;Max_cycle;Signal;HPM_P1;HPM_P2
2021/07/23 00:02:06;;;;;;;4.70;2.90;;;;;;;13.25;77.82;101313.05;125452;1095;64368;-83
2021/07/23 00:04:46;;;;;;;4.87;3.70;;;;;;;13.23;78.12;101304.41;125328;1096;64285;-86
2021/07/23 00:07:31;;;;;;;6.37;2.73;;;;;;;13.19;78.25;101305.77;125398;1096;64282;-84
2021/07/23 00:10:04;;;;;;;9.15;3.53;;;;;;;13.16;78.50;101308.80;125256;1096;64403;-83
2021/07/23 00:12:33;;;;;;;6.57;2.77;;;;;;;13.16;78.75;101308.80;124967;1095;64342;-82
2021/07/23 00:15:12;;;;;;;5.00;2.70;;;;;;;13.13;78.72;101309.13;125298;1096;64316;-82
2021/07/23 00:17:50;;;;;;;;;;;;;;;;;;;;;
2021/07/23 00:20:47;;;;;;;;;;;;;;;;;;;;;
2021/07/23 00:23:30;;;;;;;7.87;2.87;;;;;;;13.12;79.27;101304.82;125262;1096;64406;-83
2021/07/23 00:26:02;;;;;;;3.67;2.70;;;;;;;13.10;79.16;101317.48;125325;1094;64671;-84
2021/07/23 00:28:50;;;;;;;4.13;2.77;;;;;;;13.06;79.45;101303.68;125342;1096;64235;-83
2021/07/23 00:31:31;;;;;;;5.70;2.90;;;;;;;13.02;79.64;101300.53;125289;1096;64303;-85
2021/07/23 00:34:01;;;;;;;4.43;2.90;;;;;;;13.01;79.68;101304.21;128060;1095;62462;-84
2021/07/23 00:36:34;;;;;;;5.67;3.13;;;;;;;12.99;79.88;101306.22;128119;1096;61867;-83
2021/07/23 00:39:04;;;;;;;4.57;2.97;;;;;;;12.98;80.71;101299.22;126289;1095;64275;-84
2021/07/23 00:42:23;;;;;;;6.90;2.90;;;;;;;12.98;80.09;101307.21;125351;1096;64188;-87
2021/07/23 00:45:30;;;;;;;;;;;;;;;;;;;;;
2021/07/23 00:48:33;;;;;;;8.40;3.20;;;;;;;12.96;80.44;101300.41;126187;1096;64255;-83
2021/07/23 00:51:24;;;;;;;;;;;;;;;;;;;;;
2021/07/23 00:53:58;;;;;;;7.53;3.27;;;;;;;12.88;80.93;101295.98;125197;1096;64431;-82
2021/07/23 00:56:42;;;;;;;7.23;3.10;;;;;;;12.85;80.90;101294.47;125286;1096;64304;-84
2021/07/23 00:59:17;;;;;;;4.87;2.93;;;;;;;12.82;80.77;101291.35;125301;1095;64199;-84
2021/07/23 01:02:05;;;;;;;4.68;3.00;;;;;;;12.80;81.27;101296.84;125334;1095;64275;-84
2021/07/23 01:04:37;;;;;;;5.53;2.50;;;;;;;12.79;81.35;101297.01;125287;1095;64224;-83
2021/07/23 01:07:18;;;;;;;;;;;;;;;;;;;;;
2021/07/23 01:10:02;;;;;;;;;;;;;;;;;;;;;
2021/07/23 01:12:31;;;;;;;4.50;3.03;;;;;;;12.80;82.00;101296.84;125189;1096;64323;-82
2021/07/23 01:15:11;;;;;;;7.00;3.20;;;;;;;12.82;81.84;101299.34;125260;1096;64243;-83
2021/07/23 01:17:59;;;;;;;;;;;;;;;;;;;;;
2021/07/23 01:20:28;;;;;;;4.15;2.80;;;;;;;12.88;81.74;101292.47;125223;1096;64281;-84
2021/07/23 01:23:07;;;;;;;6.43;2.70;;;;;;;12.90;82.09;101299.30;125157;1096;64269;-83
2021/07/23 01:26:05;;;;;;;4.73;2.63;;;;;;;12.90;81.87;101296.63;125227;1095;64339;-84
2021/07/23 01:28:47;;;;;;;4.90;2.60;;;;;;;12.91;81.97;101295.61;125314;1095;65363;-82
2021/07/23 01:31:20;;;;;;;5.97;2.70;;;;;;;12.92;81.96;101283.97;125273;1096;64251;-83
2021/07/23 01:33:50;;;;;;;8.17;2.93;;;;;;;12.91;81.98;101282.30;124843;1096;64310;-83
2021/07/23 01:36:22;;;;;;;4.25;2.60;;;;;;;12.89;81.92;101278.98;125132;1096;64346;-82
2021/07/23 01:39:02;;;;;;;8.95;3.10;;;;;;;12.87;81.96;101278.33;125229;1096;64282;-82
2021/07/23 01:41:34;;;;;;;8.40;4.07;;;;;;;12.84;82.34;101276.85;125483;1095;64310;-82
2021/07/23 01:44:17;;;;;;;;;;;;;;;;;;;;;
2021/07/23 01:46:49;;;;;;;5.67;2.83;;;;;;;12.78;82.20;101271.41;125128;1096;64368;-81
2021/07/23 01:49:16;;;;;;;5.67;2.90;;;;;;;12.75;82.33;101272.59;125283;1095;64453;-82
2021/07/23 01:51:49;;;;;;;7.97;3.23;;;;;;;12.72;82.50;101266.77;125238;1095;64310;-83
2021/07/23 01:54:24;;;;;;;5.73;2.60;;;;;;;12.70;82.66;101274.11;125346;1094;64260;-83
2021/07/23 01:56:53;;;;;;;;;;;;;;;12.66;82.69;101270.95;125250;1095;64281;-81
2021/07/23 02:00:16;;;;;;;8.60;3.30;;;;;;;12.61;82.96;101266.16;125095;1096;64477;-82
2021/07/23 02:03:25;;;;;;;8.73;3.30;;;;;;;12.57;83.06;101280.81;125112;1095;64298;-84
2021/07/23 02:06:03;;;;;;;7.20;3.33;;;;;;;12.52;83.36;101269.05;125296;1095;64289;-85
2021/07/23 02:08:38;;;;;;;6.33;3.87;;;;;;;12.47;83.38;101264.22;125284;1095;65549;-83
2021/07/23 02:11:26;;;;;;;6.60;3.10;;;;;;;12.43;83.61;101268.23;125317;1096;64298;-84
2021/07/23 02:14:29;;;;;;;;;;;;;;;;;;;;;
2021/07/23 02:17:04;;;;;;;5.10;3.33;;;;;;;12.37;84.11;101267.11;125181;1096;64224;-84
2021/07/23 02:19:48;;;;;;;8.27;3.33;;;;;;;12.33;84.33;101263.14;125122;1096;64223;-83
2021/07/23 02:22:21;;;;;;;4.45;2.90;;;;;;;12.31;84.23;101259.81;125113;1096;64170;-83
2021/07/23 02:25:11;;;;;;;5.40;3.50;;;;;;;12.28;84.57;101265.47;125168;1096;64201;-83
2021/07/23 02:28:01;;;;;;;;;;;;;;;;;;;;;
2021/07/23 02:30:41;;;;;;;5.90;3.40;;;;;;;12.27;85.18;101258.50;125243;1096;64248;-86
2021/07/23 02:33:12;;;;;;;6.90;3.77;;;;;;;12.22;85.02;101253.70;125333;1096;64382;-85
2021/07/23 02:36:09;;;;;;;;;;;;;;;;;;;;;
2021/07/23 02:39:06;;;;;;;10.50;4.43;;;;;;;12.15;85.29;101258.03;125222;1095;64240;-84
2021/07/23 02:41:36;;;;;;;7.00;3.63;;;;;;;12.10;85.12;101263.05;125298;1096;64281;-87
2021/07/23 02:44:31;;;;;;;6.93;3.40;;;;;;;12.07;85.39;101254.56;125324;1095;64803;-84
2021/07/23 02:47:04;;;;;;;3.88;2.95;;;;;;;12.02;85.29;101260.41;125247;1095;64278;-84
2021/07/23 02:49:34;;;;;;;9.10;4.53;;;;;;;11.98;85.96;101259.91;125163;1096;64300;-83
2021/07/23 02:52:10;;;;;;;8.17;4.00;;;;;;;11.94;85.99;101257.77;125222;1096;64472;-84
2021/07/23 02:54:43;;;;;;;6.43;3.87;;;;;;;11.92;86.10;101254.44;125429;1096;64426;-84
2021/07/23 02:57:11;;;;;;;8.30;4.17;;;;;;;11.88;86.08;101255.75;125174;1096;64202;-85
2021/07/23 02:59:41;;;;;;;9.73;3.57;;;;;;;11.88;86.69;101258.41;125243;1096;64209;-84
2021/07/23 03:02:40;;;;;;;;;;;;;;;;;;;;;
2021/07/23 03:05:14;;;;;;;11.18;5.10;;;;;;;11.81;86.78;101253.77;126558;1096;63594;-84
2021/07/23 03:08:03;;;;;;;7.57;4.90;;;;;;;11.78;86.63;101246.14;128088;1096;61994;-85
2021/07/23 03:10:29;;;;;;;9.40;4.83;;;;;;;11.75;86.77;101241.18;127027;1096;64181;-83
2021/07/23 03:13:09;;;;;;;;;;;;;;;;;;;;;
2021/07/23 03:16:14;;;;;;;;;;;;;;;;;;;;;
2021/07/23 03:18:43;;;;;;;7.40;3.85;;;;;;;11.66;87.18;101236.03;125232;1096;64275;-83
2021/07/23 03:21:15;;;;;;;6.33;4.13;;;;;;;11.66;87.34;101233.38;124995;1096;64304;-83
2021/07/23 03:23:45;;;;;;;6.77;4.33;;;;;;;11.65;86.81;101232.55;125203;1095;64287;-86
2021/07/23 03:26:27;;;;;;;;;;;;;;;;;;;;;
2021/07/23 03:29:13;;;;;;;9.10;4.40;;;;;;;11.62;87.79;101239.05;125272;1095;64365;-83
2021/07/23 03:31:43;;;;;;;7.80;4.33;;;;;;;11.60;87.62;101235.72;125238;1096;64297;-88
2021/07/23 03:34:16;;;;;;;7.13;3.93;;;;;;;11.58;87.38;101234.20;124892;1096;64246;-85
2021/07/23 03:36:47;;;;;;;8.40;4.03;;;;;;;11.56;87.81;101233.55;125259;1096;64336;-84
2021/07/23 03:39:17;;;;;;;6.47;4.60;;;;;;;11.54;88.06;101241.70;125147;1096;64728;-85
2021/07/23 03:41:53;;;;;;;7.77;4.23;;;;;;;11.53;88.11;101239.20;124914;1096;64345;-85
2021/07/23 03:44:41;;;;;;;8.13;4.80;;;;;;;11.52;88.46;101232.25;125313;1094;64195;-82
2021/07/23 03:47:18;;;;;;;8.40;4.60;;;;;;;11.51;88.41;101236.70;125259;1095;64252;-82
2021/07/23 03:49:46;;;;;;;6.20;4.83;;;;;;;11.53;88.74;101229.40;125344;1095;64182;-83
2021/07/23 03:52:34;;;;;;;;;;;;;;;;;;;;;
2021/07/23 03:55:02;;;;;;;5.80;4.27;;;;;;;11.54;88.21;101235.53;125226;1095;64224;-82
2021/07/23 03:58:31;;;;;;;8.77;4.97;;;;;;;11.56;88.87;101230.89;125018;1096;64294;-84
2021/07/23 04:01:03;;;;;;;7.95;4.50;;;;;;;11.62;88.94;101227.56;124916;1095;64221;-82
2021/07/23 04:03:33;;;;;;;9.30;4.65;;;;;;;11.65;88.33;101232.55;125013;1095;64275;-85
2021/07/23 04:06:05;;;;;;;6.48;4.35;;;;;;;11.65;88.85;101231.73;125111;1096;64234;-82
2021/07/23 04:08:41;;;;;;;6.73;4.37;;;;;;;11.69;89.10;101231.22;125152;1096;64326;-84
2021/07/23 04:11:15;;;;;;;8.00;5.37;;;;;;;11.73;88.71;101227.23;125057;1096;64256;-81
2021/07/23 04:14:15;;;;;;;8.95;4.40;;;;;;;11.79;88.35;101231.02;125165;1095;64279;-83
2021/07/23 04:16:48;;;;;;;8.20;4.67;;;;;;;11.80;87.95;101235.34;124948;1095;64290;-83
2021/07/23 04:19:38;;;;;;;7.87;4.97;;;;;;;11.83;88.61;101229.67;125281;1095;64285;-84
2021/07/23 04:22:19;;;;;;;7.57;5.33;;;;;;;11.88;88.17;101234.48;125185;1096;64275;-84
2021/07/23 04:24:51;;;;;;;10.73;5.33;;;;;;;11.90;87.81;101225.39;125093;1096;64269;-84
2021/07/23 04:27:27;;;;;;;6.27;4.67;;;;;;;11.94;87.46;101232.03;125149;1096;64304;-83
2021/07/23 04:30:16;;;;;;;8.17;4.57;;;;;;;11.97;87.86;101229.02;125167;1095;64230;-83
2021/07/23 04:32:47;;;;;;;8.60;4.90;;;;;;;12.00;87.86;101228.66;125117;1096;65475;-82
2021/07/23 04:35:19;;;;;;;13.57;5.33;;;;;;;12.03;87.88;101220.36;125435;1096;64188;-83
2021/07/23 04:37:48;;;;;;;9.43;4.87;;;;;;;12.09;88.21;101223.31;125132;1096;64362;-83
2021/07/23 04:40:21;;;;;;;10.93;5.47;;;;;;;12.15;88.13;101228.77;124872;1096;64284;-87
2021/07/23 04:43:14;;;;;;;15.70;6.60;;;;;;;12.23;88.05;101223.42;125160;1096;64365;-83
2021/07/23 04:45:44;;;;;;;11.80;5.23;;;;;;;12.35;87.85;101217.74;125113;1095;64341;-83
2021/07/23 04:48:11;;;;;;;11.07;4.97;;;;;;;12.39;87.43;101222.54;124735;1095;64224;-85
2021/07/23 04:50:51;;;;;;;11.47;5.17;;;;;;;12.47;87.40;101226.97;125168;1095;64731;-85
2021/07/23 04:53:22;;;;;;;8.20;5.33;;;;;;;12.54;87.33;101227.95;124792;1096;64285;-79
2021/07/23 04:56:10;;;;;;;9.75;5.45;;;;;;;12.63;87.14;101226.07;124763;1096;64234;-78
2021/07/23 04:59:31;;;;;;;;;;;;;;;;;;;;;
2021/07/23 05:02:08;;;;;;;6.83;4.80;;;;;;;12.87;86.45;101226.91;124825;1095;64773;-79
2021/07/23 05:04:41;;;;;;;8.53;4.77;;;;;;;12.92;86.26;101230.72;125022;1095;64300;-82
2021/07/23 05:07:08;;;;;;;10.83;5.00;;;;;;;12.98;86.18;101229.98;124898;1096;64471;-80
2021/07/23 05:09:36;;;;;;;11.77;5.70;;;;;;;13.06;85.65;101227.26;125323;1096;64287;-77
2021/07/23 05:12:33;;;;;;;11.80;5.50;;;;;;;13.16;85.61;101227.03;124969;1096;64616;-82
2021/07/23 05:15:22;;;;;;;15.13;6.33;;;;;;;13.28;85.40;101224.75;124762;1096;64230;-79
2021/07/23 05:17:49;;;;;;;7.53;4.10;;;;;;;13.41;84.95;101224.20;124653;1096;64288;-81
2021/07/23 05:20:16;;;;;;;8.77;5.20;;;;;;;13.52;85.22;101221.09;124744;1096;64300;-78
2021/07/23 05:23:24;;;;;;;8.83;4.13;;;;;;;13.61;83.85;101224.50;124767;1096;64873;-78
2021/07/23 05:25:52;;;;;;;13.65;5.00;;;;;;;13.65;83.69;101220.46;124727;1096;64413;-81
2021/07/23 05:28:19;;;;;;;9.37;4.80;;;;;;;13.71;83.75;101219.73;124773;1096;64282;-77
2021/07/23 05:31:04;;;;;;;9.50;3.93;;;;;;;13.77;83.82;101227.01;124783;1096;64406;-82
2021/07/23 05:34:00;;;;;;;9.53;5.73;;;;;;;13.84;83.67;101225.25;124861;1096;64234;-79
2021/07/23 05:36:30;;;;;;;14.77;4.50;;;;;;;13.95;83.62;101217.81;124744;1096;65475;-79
2021/07/23 05:39:21;;;;;;;24.77;6.23;;;;;;;14.00;83.16;101226.08;124299;1096;64368;-77
2021/07/23 05:41:52;;;;;;;27.80;6.13;;;;;;;14.10;82.71;101220.47;124770;1094;64403;-79
2021/07/23 05:44:22;;;;;;;23.80;5.00;;;;;;;14.16;82.31;101217.06;124724;1095;64326;-79
2021/07/23 05:47:00;;;;;;;21.13;4.43;;;;;;;14.24;82.63;101220.45;124588;1096;64252;-79
2021/07/23 05:49:48;;;;;;;18.90;5.23;;;;;;;14.36;82.04;101220.79;124749;1096;64350;-82
2021/07/23 05:52:18;;;;;;;37.87;6.43;;;;;;;14.48;82.10;101221.97;124754;1097;64291;-77
2021/07/23 05:54:51;;;;;;;13.87;5.90;;;;;;;14.58;81.22;101220.89;124751;1096;64240;-78
2021/07/23 05:57:58;;;;;;;23.07;5.40;;;;;;;14.64;80.72;101212.95;124949;1096;64287;-81
2021/07/23 06:00:39;;;;;;;;;;;;;;;;;;;;;
2021/07/23 06:04:03;;;;;;;21.47;6.17;;;;;;;14.90;80.24;101219.58;124841;1095;64204;-79
2021/07/23 06:06:31;;;;;;;10.43;3.33;;;;;;;15.04;79.02;101225.86;124715;1096;64209;-82
2021/07/23 06:09:03;;;;;;;11.33;4.43;;;;;;;15.13;78.82;101218.53;124768;1096;64368;-82
2021/07/23 06:11:53;;;;;;;15.60;4.90;;;;;;;15.25;78.73;101223.17;124725;1096;64375;-83
2021/07/23 06:14:26;;;;;;;13.20;5.15;;;;;;;15.39;77.85;101210.75;124729;1096;64336;-83
2021/07/23 06:17:13;;;;;;;13.10;3.97;;;;;;;15.51;77.84;101213.70;124966;1096;64324;-79
2021/07/23 06:19:42;;;;;;;10.23;3.30;;;;;;;15.61;76.33;101211.52;124786;1095;64200;-78
2021/07/23 06:22:09;;;;;;;18.60;4.15;;;;;;;15.68;75.43;101224.92;124799;1096;64294;-81
2021/07/23 06:24:40;;;;;;;19.03;4.73;;;;;;;15.77;76.04;101218.45;124754;1096;64169;-79
2021/07/23 06:27:26;;;;;;;12.87;4.40;;;;;;;15.93;76.05;101219.97;124247;1096;64326;-79
2021/07/23 06:29:56;;;;;;;4.63;2.43;;;;;;;16.09;74.08;101221.51;124789;1096;64323;-81
2021/07/23 06:32:28;;;;;;;10.03;3.40;;;;;;;16.18;73.66;101209.60;124770;1095;64377;-79
2021/07/23 06:34:58;;;;;;;10.15;3.00;;;;;;;16.32;72.81;101221.20;124800;1096;64291;-82
2021/07/23 06:37:39;;;;;;;;;;;;;;;;;;;;;
2021/07/23 06:40:13;;;;;;;7.30;2.43;;;;;;;16.56;71.13;101219.84;124776;1096;64284;-80
2021/07/23 06:43:10;;;;;;;5.00;2.17;;;;;;;16.68;70.58;101220.91;124927;1096;64329;-79
2021/07/23 06:45:38;;;;;;;6.17;2.30;;;;;;;16.80;70.61;101220.30;124794;1095;64281;-79
2021/07/23 06:48:06;;;;;;;5.90;2.20;;;;;;;16.87;69.53;101216.66;124751;1096;64297;-79
2021/07/23 06:50:58;;;;;;;6.65;3.30;;;;;;;16.97;69.38;101224.27;124460;1096;64387;-80
2021/07/23 06:53:25;;;;;;;7.03;2.37;;;;;;;17.04;69.74;101227.80;124860;1096;64355;-78
2021/07/23 06:55:58;;;;;;;6.70;2.15;;;;;;;17.15;68.31;101220.16;124558;1096;64286;-80
2021/07/23 06:59:01;;;;;;;5.05;2.30;;;;;;;17.22;67.27;101226.37;124754;1096;64279;-80
2021/07/23 07:01:51;;;;;;;6.43;2.47;;;;;;;17.24;67.57;101221.63;124838;1095;64310;-81
2021/07/23 07:04:23;;;;;;;6.45;2.75;;;;;;;17.28;66.05;101223.69;125043;1096;64327;-82
2021/07/23 07:06:55;;;;;;;6.80;3.35;;;;;;;17.22;65.76;101229.05;124871;1096;64554;-78
2021/07/23 07:09:29;;;;;;;7.50;3.87;;;;;;;17.18;67.08;101227.81;124823;1096;64381;-78
2021/07/23 07:12:00;;;;;;;9.83;3.73;;;;;;;17.24;67.71;101224.31;124767;1096;64275;-80
2021/07/23 07:14:27;;;;;;;7.30;3.15;;;;;;;17.35;67.54;101228.23;124639;1095;64391;-79
2021/07/23 07:17:00;;;;;;;12.10;2.60;;;;;;;17.47;66.97;101223.89;124915;1095;64301;-82
2021/07/23 07:19:33;;;;;;;16.30;9.90;;;;;;;17.62;66.48;101221.80;124947;1095;64335;-82
2021/07/23 07:22:30;;;;;;;6.55;3.18;;;;;;;17.75;66.01;101218.27;124681;1097;64300;-81
2021/07/23 07:24:57;;;;;;;6.60;3.63;;;;;;;17.80;65.46;101220.32;124315;1096;64355;-80
2021/07/23 07:27:34;;;;;;;11.43;3.20;;;;;;;17.83;65.33;101218.08;124195;1096;64457;-78
2021/07/23 07:30:01;;;;;;;9.33;4.17;;;;;;;17.89;64.74;101219.93;124211;1096;64373;-78
2021/07/23 07:32:31;;;;;;;12.53;5.87;;;;;;;17.95;65.04;101212.05;124225;1095;64335;-80
2021/07/23 07:35:28;;;;;;;7.90;2.85;;;;;;;17.96;63.85;101219.06;124422;1096;64410;-82
2021/07/23 07:37:55;;;;;;;6.63;2.45;;;;;;;18.00;63.30;101214.92;124330;1096;64806;-82
2021/07/23 07:40:22;;;;;;;8.50;2.77;;;;;;;18.00;63.02;101214.92;124193;1096;64283;-79
2021/07/23 07:43:40;;;;;;;7.87;2.90;;;;;;;18.03;63.76;101214.52;124139;1096;64261;-78
2021/07/23 07:46:18;;;;;;;8.27;2.97;;;;;;;18.07;63.92;101213.06;124107;1096;64483;-80
2021/07/23 07:48:49;;;;;;;6.70;3.10;;;;;;;18.18;63.62;101212.39;124191;1096;64324;-79
2021/07/23 07:51:16;;;;;;;21.80;12.43;;;;;;;18.29;63.82;101209.02;124263;1096;64253;-82
2021/07/23 07:53:46;;;;;;;8.13;3.07;;;;;;;18.44;62.66;101211.44;124126;1095;64294;-79
2021/07/23 07:56:57;;;;;;;8.30;3.83;;;;;;;18.59;62.45;101208.47;124156;1096;64327;-82
2021/07/23 07:59:33;;;;;;;4.17;1.90;;;;;;;18.86;62.74;101206.47;124477;1096;64234;-75
2021/07/23 08:02:01;;;;;;;1.93;1.20;;;;;;;18.96;59.48;101206.00;124608;1096;65064;-75
2021/07/23 08:04:28;;;;;;;3.50;1.80;;;;;;;18.87;59.16;101201.91;124666;1096;64301;-74
2021/07/23 08:06:55;;;;;;;2.40;1.53;;;;;;;18.79;59.23;101197.64;124578;1094;65299;-74
2021/07/23 08:09:26;;;;;;;2.23;1.47;;;;;;;18.97;59.85;101196.06;124628;1095;64216;-75
2021/07/23 08:11:54;;;;;;;3.63;1.47;;;;;;;19.18;60.27;101200.24;124610;1095;64208;-74
2021/07/23 08:14:21;;;;;;;4.53;1.60;;;;;;;19.47;58.53;101210.33;124650;1096;64300;-75
2021/07/23 08:16:57;;;;;;;3.80;1.40;;;;;;;19.73;58.99;101203.07;124653;1095;64304;-77
2021/07/23 08:19:24;;;;;;;3.67;1.30;;;;;;;19.77;57.20;101198.88;124671;1096;64235;-76
2021/07/23 08:21:54;;;;;;;3.70;2.17;;;;;;;19.78;56.41;101203.20;124684;1096;64279;-75
2021/07/23 08:24:32;;;;;;;3.25;1.75;;;;;;;19.90;56.22;101196.04;124744;1096;64233;-75
2021/07/23 08:27:01;;;;;;;17.40;12.00;;;;;;;20.00;56.47;101194.67;124851;1096;64282;-74
2021/07/23 08:29:30;;;;;;;3.50;1.23;;;;;;;20.02;55.86;101192.58;124774;1095;64282;-76
2021/07/23 08:32:31;;;;;;;3.20;1.30;;;;;;;20.08;55.22;101194.38;124250;1097;64345;-76
2021/07/23 08:35:04;;;;;;;4.07;1.20;;;;;;;20.40;55.56;101196.88;124743;1096;64166;-75
2021/07/23 08:37:33;;;;;;;2.53;1.20;;;;;;;20.72;54.33;101195.63;124701;1096;64904;-76
2021/07/23 08:40:11;;;;;;;;;;;;;;;;;;;;;
2021/07/23 08:42:38;;;;;;;3.30;1.50;;;;;;;20.96;52.42;101190.29;124381;1096;64300;-75
2021/07/23 08:45:17;;;;;;;;;;;;;;;;;;;;;
2021/07/23 08:47:56;;;;;;;3.43;1.37;;;;;;;21.17;52.13;101187.03;124641;1095;64250;-77
2021/07/23 08:50:24;;;;;;;2.83;1.50;;;;;;;21.22;51.85;101185.51;124689;1096;64284;-76
2021/07/23 08:52:55;;;;;;;6.17;1.87;;;;;;;21.11;51.16;101187.96;124704;1096;64265;-75
2021/07/23 08:55:45;;;;;;;2.95;1.35;;;;;;;21.01;51.61;101189.59;124254;1096;64321;-77
2021/07/23 08:58:15;;;;;;;5.80;3.15;;;;;;;21.17;50.70;101181.63;124720;1096;64208;-80
2021/07/23 09:00:43;;;;;;;2.27;1.40;;;;;;;21.40;52.20;101174.61;124718;1096;64291;-79
2021/07/23 09:03:10;;;;;;;4.83;1.40;;;;;;;21.58;50.98;101179.08;124666;1097;64227;-75
2021/07/23 09:05:40;;;;;;;4.27;1.60;;;;;;;21.72;50.51;101182.36;124611;1096;64243;-79
2021/07/23 09:08:28;;;;;;;2.93;1.37;;;;;;;21.75;50.87;101179.17;124847;1097;64316;-80
2021/07/23 09:11:06;;;;;;;73.15;58.85;;;;;;;21.79;49.72;101174.94;124731;1096;64278;-78
2021/07/23 09:13:33;;;;;;;3.33;1.50;;;;;;;21.73;49.84;101171.30;124748;1096;64400;-79
2021/07/23 09:16:24;;;;;;;3.10;1.40;;;;;;;21.53;49.35;101163.59;124765;1096;64323;-75
2021/07/23 09:19:06;;;;;;;2.30;1.20;;;;;;;21.55;50.34;101172.28;124751;1096;64227;-76
2021/07/23 09:21:41;;;;;;;2.80;1.20;;;;;;;21.69;49.00;101170.13;124651;1096;64295;-77
2021/07/23 09:24:09;;;;;;;2.43;1.40;;;;;;;21.74;49.51;101161.31;125135;1096;64173;-76
2021/07/23 09:26:44;;;;;;;2.73;1.23;;;;;;;21.99;49.71;101161.02;124861;1096;64269;-76
2021/07/23 09:29:13;;;;;;;2.80;1.20;;;;;;;22.21;47.91;101163.90;124660;1096;64416;-76
2021/07/23 09:32:00;;;;;;;4.47;1.60;;;;;;;22.20;49.66;101160.36;124827;1096;64197;-76
2021/07/23 09:34:31;;;;;;;4.13;1.50;;;;;;;21.99;49.52;101167.27;124687;1096;64272;-77
2021/07/23 09:37:39;;;;;;;;;;;;;;;;;;;;;
2021/07/23 09:40:11;;;;;;;3.70;1.30;;;;;;;21.60;50.81;101155.36;126537;1095;64284;-77
2021/07/23 09:42:38;;;;;;;11.00;8.23;;;;;;;21.55;50.99;101156.08;124738;1096;64300;-75
2021/07/23 09:45:06;;;;;;;3.25;2.15;;;;;;;21.72;51.44;101153.47;124733;1096;64413;-77
2021/07/23 09:47:33;;;;;;;6.93;4.37;;;;;;;22.00;50.92;101151.88;124662;1097;64290;-75
2021/07/23 09:50:04;;;;;;;2.67;1.60;;;;;;;22.31;48.66;101147.88;124671;1096;65475;-77
2021/07/23 09:52:34;;;;;;;2.50;0.97;;;;;;;22.60;48.67;101145.98;124685;1096;64288;-74
2021/07/23 09:55:02;;;;;;;2.13;1.03;;;;;;;22.95;48.01;101144.10;124833;1096;64429;-75
2021/07/23 09:57:32;;;;;;;3.80;1.30;;;;;;;23.28;46.53;101140.58;124795;1096;64268;-75
2021/07/23 10:00:10;;;;;;;4.67;2.83;;;;;;;23.49;46.91;101144.39;124668;1096;64354;-75
2021/07/23 10:02:44;;;;;;;14.93;10.57;;;;;;;23.66;47.42;101147.05;124719;1096;64877;-75
2021/07/23 10:05:13;;;;;;;;;;;;;;;23.61;45.71;101139.69;124768;1096;64297;-78
2021/07/23 10:07:53;;;;;;;2.27;0.97;;;;;;;23.57;46.43;101137.73;124782;1096;64349;-77
2021/07/23 10:10:21;;;;;;;2.10;0.80;;;;;;;23.63;46.06;101142.13;124715;1096;64382;-77
2021/07/23 10:12:51;;;;;;;1.83;1.03;;;;;;;23.37;46.40;101141.78;124766;1096;64285;-74
2021/07/23 10:15:19;;;;;;;2.77;1.13;;;;;;;23.07;46.15;101144.05;124537;1096;64387;-73
2021/07/23 10:17:47;;;;;;;2.90;0.97;;;;;;;22.60;47.27;101143.27;124623;1096;64397;-74
2021/07/23 10:20:19;;;;;;;4.87;2.07;;;;;;;22.37;48.54;101140.70;124550;1096;64455;-74
2021/07/23 10:22:51;;;;;;;38.00;27.13;;;;;;;22.40;49.12;101129.42;124731;1096;64332;-77
2021/07/23 10:25:22;;;;;;;10.10;5.40;;;;;;;22.65;49.30;101130.91;124822;1095;65469;-78
2021/07/23 10:27:50;;;;;;;2.43;1.10;;;;;;;22.80;49.21;101131.15;124805;1097;64320;-81
2021/07/23 10:30:30;;;;;;;15.13;10.40;;;;;;;;;;124224;1096;64304;-77
2021/07/23 10:32:58;;;;;;;1.97;1.30;;;;;;;22.99;47.23;101131.72;124663;1096;64386;-75
2021/07/23 10:35:25;;;;;;;4.17;2.47;;;;;;;23.25;46.58;101129.42;124693;1096;65427;-78
2021/07/23 10:37:59;;;;;;;2.60;1.20;;;;;;;23.46;46.70;101125.11;124707;1096;64320;-78
2021/07/23 10:40:36;;;;;;;2.93;1.30;;;;;;;23.56;45.17;101120.64;124782;1096;64233;-80
2021/07/23 10:43:36;;;;;;;5.67;2.97;;;;;;;23.43;45.61;101109.38;124711;1096;64870;-80
2021/07/23 10:46:05;;;;;;;2.07;1.07;;;;;;;23.43;45.58;101106.67;124922;1096;64406;-77
2021/07/23 10:48:47;;;;;;;5.50;1.40;;;;;;;23.54;45.08;101095.70;124828;1097;64304;-77
2021/07/23 10:51:46;;;;;;;3.85;1.60;;;;;;;23.56;44.15;101109.81;124816;1097;64282;-79
2021/07/23 10:54:14;;;;;;;5.15;1.50;;;;;;;23.29;44.44;101108.91;124716;1096;64284;-76
2021/07/23 10:56:57;;;;;;;4.60;2.47;;;;;;;23.31;45.23;101118.45;124835;1096;64224;-79
2021/07/23 10:59:40;;;;;;;20.80;16.45;;;;;;;23.25;46.66;101100.48;124737;1096;64416;-75
2021/07/23 11:02:14;;;;;;;2.73;1.67;;;;;;;23.45;46.79;101099.93;124704;1095;64333;-75
2021/07/23 11:04:44;;;;;;;2.90;1.35;;;;;;;23.47;44.95;101105.10;124850;1095;64453;-75
2021/07/23 11:07:12;;;;;;;4.53;2.60;;;;;;;23.53;45.09;101098.69;124705;1096;64227;-74
2021/07/23 11:09:40;;;;;;;4.73;1.50;;;;;;;23.51;46.20;101095.41;124742;1096;64303;-77
2021/07/23 11:12:28;;;;;;;3.33;1.50;;;;;;;23.71;46.67;101090.22;124223;1096;64394;-75
2021/07/23 11:15:00;;;;;;;4.93;1.63;;;;;;;23.67;47.00;101101.81;124822;1095;65835;-76
2021/07/23 11:17:31;;;;;;;3.83;1.60;;;;;;;23.58;47.03;101090.61;124655;1096;64208;-78
2021/07/23 11:20:01;;;;;;;2.95;1.65;;;;;;;23.64;48.28;101094.21;124743;1096;64380;-76
2021/07/23 11:22:36;;;;;;;3.03;1.60;;;;;;;23.64;47.22;101092.31;125273;1095;64278;-76
2021/07/23 11:25:06;;;;;;;8.57;5.80;;;;;;;23.77;47.01;101094.66;124759;1096;64352;-75
2021/07/23 11:27:45;;;;;;;4.10;1.65;;;;;;;23.78;46.16;101095.47;124777;1096;64281;-75
2021/07/23 11:30:20;;;;;;;2.40;1.40;;;;;;;23.74;46.91;101094.34;124752;1096;64255;-77
2021/07/23 11:32:55;;;;;;;2.37;1.30;;;;;;;23.71;45.17;101097.53;124730;1096;64310;-76
2021/07/23 11:35:27;;;;;;;5.50;3.30;;;;;;;23.85;46.18;101100.72;124785;1095;65366;-75
2021/07/23 11:37:56;;;;;;;3.60;1.67;;;;;;;24.04;45.33;101087.66;124860;1096;64399;-78
2021/07/23 11:40:28;;;;;;;2.27;1.20;;;;;;;24.29;44.62;101077.05;124845;1096;64312;-74
2021/07/23 11:42:56;;;;;;;3.15;1.50;;;;;;;24.61;45.57;101079.79;124826;1096;64301;-76
2021/07/23 11:45:34;;;;;;;1.70;1.30;;;;;;;24.67;44.47;101077.91;124672;1095;64128;-78
2021/07/23 11:48:16;;;;;;;2.85;1.20;;;;;;;24.53;43.83;101084.88;124764;1097;64258;-76
2021/07/23 11:51:00;;;;;;;2.03;1.00;;;;;;;24.49;44.00;101083.76;124711;1096;64342;-76
2021/07/23 11:53:27;;;;;;;2.20;1.38;;;;;;;24.66;44.28;101073.58;124441;1096;64339;-77
2021/07/23 11:55:55;;;;;;;1.70;1.00;;;;;;;24.85;44.44;101075.89;124757;1096;64297;-79
2021/07/23 11:58:30;;;;;;;1.47;0.80;;;;;;;24.87;42.90;101073.73;124756;1096;64282;-76
2021/07/23 12:00:57;;;;;;;3.55;1.60;;;;;;;24.93;42.33;101072.69;124781;1096;64304;-78
2021/07/23 12:03:28;;;;;;;4.27;1.27;;;;;;;25.11;43.20;101077.66;124668;1096;64301;-79
2021/07/23 12:06:09;;;;;;;1.97;1.20;;;;;;;25.01;44.55;101074.89;124858;1096;64256;-82
2021/07/23 12:08:42;;;;;;;4.30;1.60;;;;;;;24.76;45.22;101062.81;124307;1096;64367;-76
2021/07/23 12:11:14;;;;;;;2.20;1.10;;;;;;;24.80;44.65;101073.94;124765;1096;64298;-78
2021/07/23 12:13:58;;;;;;;3.33;1.40;;;;;;;25.14;44.58;101065.45;124361;1097;64372;-79
2021/07/23 12:16:25;;;;;;;2.30;1.47;;;;;;;25.59;43.74;101064.08;124638;1096;64326;-75
2021/07/23 12:19:01;;;;;;;2.57;1.20;;;;;;;26.14;42.49;101064.48;124713;1096;64297;-76
2021/07/23 12:21:29;;;;;;;3.13;1.40;;;;;;;26.37;41.60;101057.70;124960;1096;64278;-76
2021/07/23 12:24:06;;;;;;;2.20;1.40;;;;;;;26.81;41.50;101057.16;124854;1097;64314;-78
2021/07/23 12:26:35;;;;;;;2.50;1.50;;;;;;;26.79;40.61;101060.14;124830;1096;64298;-78
2021/07/23 12:29:05;;;;;;;2.87;1.27;;;;;;;26.38;40.40;101062.88;124743;1096;65520;-77
2021/07/23 12:31:37;;;;;;;2.23;1.50;;;;;;;26.20;41.34;101057.97;124492;1096;64442;-78
2021/07/23 12:34:19;;;;;;;2.57;1.60;;;;;;;26.54;40.61;101055.52;124752;1096;64617;-79